Oakland, Florida
Current Conditions -  °F | °C
As of 9:53 AM on Friday 24 Oct 2014 (Local Time) from KORL Reporting Station
Few Clouds Few Clouds  
Wind Chill: 70°   Ceiling: Unl
Heat Index: 70°   Visibility: 10mi
Dew Point: 58°   Wind: 8mph
Humidity: 65%   Direction: 10°N
Pressure: 30.01"   Gusts: NA
Location:  28.55°N, 81.63°W
Report Text: KORL 241353Z 01007KT 10SM FEW034 21/14 A3001 RMK AO2 SLP166 T02110144
Loading
Personal Weather Stations






























Interactive Weather Map
Tropical Storm Tracking
New forecast layout! Learn more

10-Day Weather Forecast

Advertisements
Track Severe Weather on mobile